Date,TemperatureHighF,TemperatureAvgF,TemperatureLowF,DewpointHighF,DewpointAvgF,DewpointLowF,HumidityHigh,HumidityAvg,HumidityLow,PressureMaxIn,PressureMinIn,WindSpeedMaxMPH,WindSpeedAvgMPH,GustSpeedMaxMPH,PrecipitationSumIn
2013-4-1,87.7,82.4,79.9,75.0,73.1,71.0,83,73,60,29.96,29.82,21,11,25,0.00
2013-4-2,87.8,83.0,80.5,76.0,74.8,74.0,82,76,64,29.95,29.80,24,10,26,0.00
2013-4-3,86.8,82.6,80.2,76.0,75.1,74.0,84,78,68,29.95,29.82,22,10,28,0.00
2013-4-4,86.7,82.2,79.8,76.0,74.5,73.0,83,78,70,29.98,29.86,16,8,31,0.00
2013-4-5,86.6,81.3,78.8,75.0,73.2,72.0,84,76,65,29.97,29.81,17,8,22,0.00
2013-4-6,86.8,82.4,79.8,76.0,74.8,74.0,85,78,67,29.96,29.80,19,8,25,0.00
2013-4-7,87.2,82.6,80.0,77.0,75.6,74.0,86,80,70,29.93,29.81,17,9,25,0.00
2013-4-8,86.9,82.4,80.0,76.0,75.0,74.0,85,78,67,29.93,29.80,20,9,26,0.00
2013-4-9,86.9,82.2,79.7,76.0,74.2,73.0,85,77,66,29.95,29.80,17,8,26,0.00
2013-4-10,87.2,82.4,79.6,75.0,74.2,73.0,84,77,65,29.93,29.80,16,9,24,0.00
2013-4-11,87.3,81.7,77.0,76.0,74.2,73.0,89,78,65,29.92,29.80,15,8,19,0.01
2013-4-12,86.5,81.9,79.6,76.0,74.4,73.0,84,78,67,29.91,29.80,15,7,23,0.00
2013-4-13,86.7,82.8,79.8,77.0,75.3,74.0,86,78,69,29.90,29.76,17,9,27,0.00
2013-4-14,87.8,82.8,80.0,77.0,75.0,73.0,86,78,62,29.89,29.79,19,10,27,0.00
2013-4-15,86.5,82.5,80.2,77.0,76.1,75.0,88,81,71,29.91,29.82,22,10,26,0.00
2013-4-16,86.9,82.3,80.0,78.0,76.3,75.0,87,82,73,29.92,29.80,17,8,23,0.00
2013-4-17,86.8,82.5,80.3,78.0,76.4,75.0,87,82,73,29.89,29.76,18,8,25,0.00
2013-4-18,87.0,82.2,79.7,78.0,76.1,75.0,89,82,70,29.91,29.78,18,8,24,0.00
2013-4-19,86.2,81.7,79.2,77.0,76.0,75.0,89,83,71,29.95,29.82,17,7,22,0.00
2013-4-20,87.7,82.0,79.2,77.0,76.0,75.0,89,82,67,29.95,29.82,14,6,21,0.00
2013-4-21,88.2,82.4,78.5,76.0,75.6,74.0,90,80,65,29.95,29.83,14,5,16,0.00
2013-4-22,86.4,80.8,77.1,77.0,75.1,74.0,94,83,68,29.93,29.82,13,5,18,0.14
2013-4-23,86.8,81.4,77.2,77.0,75.1,73.0,91,81,69,29.91,29.80,11,5,16,0.00
2013-4-24,87.9,82.5,79.1,77.0,76.3,75.0,89,82,68,29.93,29.80,13,6,18,0.00
2013-4-25,85.2,80.8,76.7,78.0,76.2,74.0,95,86,76,29.95,29.81,12,5,21,0.26
2013-4-26,87.8,82.1,77.1,77.0,75.6,74.0,93,81,66,29.94,29.84,14,6,18,0.02
2013-4-27,87.1,82.1,79.2,77.0,75.1,74.0,86,79,68,29.93,29.80,14,5,19,0.08
2013-4-28,87.1,81.9,77.7,77.0,74.9,73.0,87,80,64,29.91,29.78,15,5,17,0.00
2013-4-29,87.0,81.5,76.4,78.0,76.6,75.0,95,85,73,29.88,29.79,14,6,19,0.14
2013-4-30,87.5,82.6,79.9,78.0,76.9,76.0,89,83,71,29.91,29.80,13,6,19,0.00